sensor_id;sensor_type;location;lat;lon;timestamp;temperature;humidity
2162;DHT22;1087;50.226;8.682;2022-12-07T00:01:41;6.30;99.90
2162;DHT22;1087;50.226;8.682;2022-12-07T00:04:09;6.30;99.90
2162;DHT22;1087;50.226;8.682;2022-12-07T00:06:40;6.30;99.90
2162;DHT22;1087;50.226;8.682;2022-12-07T00:09:07;6.30;99.90
2162;DHT22;1087;50.226;8.682;2022-12-07T00:11:34;6.30;99.90
2162;DHT22;1087;50.226;8.682;2022-12-07T00:14:02;6.20;99.90
2162;DHT22;1087;50.226;8.682;2022-12-07T00:16:29;6.20;99.90
2162;DHT22;1087;50.226;8.682;2022-12-07T00:18:56;6.20;99.90
2162;DHT22;1087;50.226;8.682;2022-12-07T00:21:26;6.20;99.90
2162;DHT22;1087;50.226;8.682;2022-12-07T00:23:54;6.20;99.90
2162;DHT22;1087;50.226;8.682;2022-12-07T00:26:22;6.20;99.90
2162;DHT22;1087;50.226;8.682;2022-12-07T00:28:50;6.20;99.90
2162;DHT22;1087;50.226;8.682;2022-12-07T00:31:18;6.30;99.90
2162;DHT22;1087;50.226;8.682;2022-12-07T00:33:43;6.30;99.90
2162;DHT22;1087;50.226;8.682;2022-12-07T00:36:11;6.30;99.90
2162;DHT22;1087;50.226;8.682;2022-12-07T00:38:37;6.30;99.90
2162;DHT22;1087;50.226;8.682;2022-12-07T00:41:06;6.40;99.90
2162;DHT22;1087;50.226;8.682;2022-12-07T00:43:33;6.30;99.90
2162;DHT22;1087;50.226;8.682;2022-12-07T00:45:59;6.30;99.90
2162;DHT22;1087;50.226;8.682;2022-12-07T00:48:25;6.30;99.90
2162;DHT22;1087;50.226;8.682;2022-12-07T00:50:50;6.30;99.90
2162;DHT22;1087;50.226;8.682;2022-12-07T00:53:16;6.30;99.90
2162;DHT22;1087;50.226;8.682;2022-12-07T00:55:42;6.30;99.90
2162;DHT22;1087;50.226;8.682;2022-12-07T00:58:08;6.30;99.90
2162;DHT22;1087;50.226;8.682;2022-12-07T01:00:36;6.30;99.90
2162;DHT22;1087;50.226;8.682;2022-12-07T01:03:02;6.30;99.90
2162;DHT22;1087;50.226;8.682;2022-12-07T01:05:27;6.30;99.90
2162;DHT22;1087;50.226;8.682;2022-12-07T01:07:53;6.40;99.90
2162;DHT22;1087;50.226;8.682;2022-12-07T01:10:18;6.40;99.90
2162;DHT22;1087;50.226;8.682;2022-12-07T01:12:43;6.40;99.90
2162;DHT22;1087;50.226;8.682;2022-12-07T01:15:09;6.40;99.90
2162;DHT22;1087;50.226;8.682;2022-12-07T01:17:35;6.40;99.90
2162;DHT22;1087;50.226;8.682;2022-12-07T01:20:01;6.40;99.90
2162;DHT22;1087;50.226;8.682;2022-12-07T01:22:27;6.30;99.90
2162;DHT22;1087;50.226;8.682;2022-12-07T01:24:52;6.30;99.90
2162;DHT22;1087;50.226;8.682;2022-12-07T01:27:18;6.30;99.90
2162;DHT22;1087;50.226;8.682;2022-12-07T01:29:44;6.40;99.90
2162;DHT22;1087;50.226;8.682;2022-12-07T01:32:10;6.40;99.90
2162;DHT22;1087;50.226;8.682;2022-12-07T01:34:36;6.40;99.90
2162;DHT22;1087;50.226;8.682;2022-12-07T01:37:01;6.30;99.90
2162;DHT22;1087;50.226;8.682;2022-12-07T01:39:27;6.20;99.90
2162;DHT22;1087;50.226;8.682;2022-12-07T01:41:53;6.30;99.90
2162;DHT22;1087;50.226;8.682;2022-12-07T01:44:27;6.30;99.90
2162;DHT22;1087;50.226;8.682;2022-12-07T01:47:00;6.20;99.90
2162;DHT22;1087;50.226;8.682;2022-12-07T01:49:46;6.20;99.90
2162;DHT22;1087;50.226;8.682;2022-12-07T01:54:50;6.20;99.90
2162;DHT22;1087;50.226;8.682;2022-12-07T01:57:17;6.30;99.90
2162;DHT22;1087;50.226;8.682;2022-12-07T01:59:45;6.30;99.90
2162;DHT22;1087;50.226;8.682;2022-12-07T02:02:19;6.30;99.90
2162;DHT22;1087;50.226;8.682;2022-12-07T02:04:46;6.30;99.90
2162;DHT22;1087;50.226;8.682;2022-12-07T02:07:12;6.40;99.90
2162;DHT22;1087;50.226;8.682;2022-12-07T02:09:37;6.40;99.90
2162;DHT22;1087;50.226;8.682;2022-12-07T02:12:03;6.20;99.90
2162;DHT22;1087;50.226;8.682;2022-12-07T02:14:29;6.20;99.90
2162;DHT22;1087;50.226;8.682;2022-12-07T02:17:12;6.20;99.90
2162;DHT22;1087;50.226;8.682;2022-12-07T02:26:05;6.10;99.90
2162;DHT22;1087;50.226;8.682;2022-12-07T02:28:37;6.20;99.90
2162;DHT22;1087;50.226;8.682;2022-12-07T02:31:09;6.20;99.90
2162;DHT22;1087;50.226;8.682;2022-12-07T02:33:43;6.20;99.90
2162;DHT22;1087;50.226;8.682;2022-12-07T02:36:17;6.10;99.90
2162;DHT22;1087;50.226;8.682;2022-12-07T02:38:50;6.10;99.90
2162;DHT22;1087;50.226;8.682;2022-12-07T02:41:30;6.20;99.90
2162;DHT22;1087;50.226;8.682;2022-12-07T02:44:00;6.20;99.90
2162;DHT22;1087;50.226;8.682;2022-12-07T02:46:33;6.10;99.90
2162;DHT22;1087;50.226;8.682;2022-12-07T02:49:00;6.10;99.90
2162;DHT22;1087;50.226;8.682;2022-12-07T02:51:32;6.00;99.90
2162;DHT22;1087;50.226;8.682;2022-12-07T02:53:59;5.90;99.90
2162;DHT22;1087;50.226;8.682;2022-12-07T02:59:16;5.90;99.90
2162;DHT22;1087;50.226;8.682;2022-12-07T03:05:07;6.10;99.90
2162;DHT22;1087;50.226;8.682;2022-12-07T03:13:28;6.10;99.90
2162;DHT22;1087;50.226;8.682;2022-12-07T03:16:04;6.10;99.90
2162;DHT22;1087;50.226;8.682;2022-12-07T03:18:39;6.10;99.90
2162;DHT22;1087;50.226;8.682;2022-12-07T03:21:11;6.20;99.90
2162;DHT22;1087;50.226;8.682;2022-12-07T03:23:40;6.20;99.90
2162;DHT22;1087;50.226;8.682;2022-12-07T03:26:10;6.10;99.90
2162;DHT22;1087;50.226;8.682;2022-12-07T03:28:42;6.10;99.90
2162;DHT22;1087;50.226;8.682;2022-12-07T03:31:29;6.10;99.90
2162;DHT22;1087;50.226;8.682;2022-12-07T03:34:14;6.00;99.90
2162;DHT22;1087;50.226;8.682;2022-12-07T03:36:54;5.90;99.90
2162;DHT22;1087;50.226;8.682;2022-12-07T03:39:36;6.00;99.90
2162;DHT22;1087;50.226;8.682;2022-12-07T03:42:05;6.10;99.90
2162;DHT22;1087;50.226;8.682;2022-12-07T03:44:33;6.10;99.90
2162;DHT22;1087;50.226;8.682;2022-12-07T03:47:20;6.00;99.90
2162;DHT22;1087;50.226;8.682;2022-12-07T03:49:55;6.00;99.90
2162;DHT22;1087;50.226;8.682;2022-12-07T03:52:42;6.00;99.90
2162;DHT22;1087;50.226;8.682;2022-12-07T03:57:47;6.00;99.90
2162;DHT22;1087;50.226;8.682;2022-12-07T04:00:14;6.00;99.90
2162;DHT22;1087;50.226;8.682;2022-12-07T04:02:41;6.10;99.90
2162;DHT22;1087;50.226;8.682;2022-12-07T04:05:07;6.10;99.90
2162;DHT22;1087;50.226;8.682;2022-12-07T04:07:33;6.20;99.90
2162;DHT22;1087;50.226;8.682;2022-12-07T04:09:59;6.10;99.90
2162;DHT22;1087;50.226;8.682;2022-12-07T04:12:24;6.20;99.90
2162;DHT22;1087;50.226;8.682;2022-12-07T04:14:50;6.20;99.90
2162;DHT22;1087;50.226;8.682;2022-12-07T04:17:15;6.20;99.90
2162;DHT22;1087;50.226;8.682;2022-12-07T04:19:41;6.20;99.90
2162;DHT22;1087;50.226;8.682;2022-12-07T04:22:06;6.20;99.90
2162;DHT22;1087;50.226;8.682;2022-12-07T04:24:33;6.20;99.90
2162;DHT22;1087;50.226;8.682;2022-12-07T04:26:58;6.20;99.90
2162;DHT22;1087;50.226;8.682;2022-12-07T04:29:24;6.30;99.90
2162;DHT22;1087;50.226;8.682;2022-12-07T04:31:50;6.30;99.90
2162;DHT22;1087;50.226;8.682;2022-12-07T04:34:16;6.20;99.90
2162;DHT22;1087;50.226;8.682;2022-12-07T04:36:43;6.20;99.90
2162;DHT22;1087;50.226;8.682;2022-12-07T04:39:21;6.20;99.90
2162;DHT22;1087;50.226;8.682;2022-12-07T04:41:47;6.20;99.90
2162;DHT22;1087;50.226;8.682;2022-12-07T04:44:13;6.20;99.90
2162;DHT22;1087;50.226;8.682;2022-12-07T04:46:40;6.20;99.90
2162;DHT22;1087;50.226;8.682;2022-12-07T04:49:06;6.20;99.90
2162;DHT22;1087;50.226;8.682;2022-12-07T04:51:31;6.30;99.90
2162;DHT22;1087;50.226;8.682;2022-12-07T04:53:57;6.30;99.90
2162;DHT22;1087;50.226;8.682;2022-12-07T04:56:23;6.30;99.90
2162;DHT22;1087;50.226;8.682;2022-12-07T04:58:51;6.10;99.90
2162;DHT22;1087;50.226;8.682;2022-12-07T05:01:18;6.10;99.90
2162;DHT22;1087;50.226;8.682;2022-12-07T05:03:44;6.20;99.90
2162;DHT22;1087;50.226;8.682;2022-12-07T05:06:11;6.20;99.90
2162;DHT22;1087;50.226;8.682;2022-12-07T05:08:37;6.30;99.90
2162;DHT22;1087;50.226;8.682;2022-12-07T05:11:04;6.30;99.90
2162;DHT22;1087;50.226;8.682;2022-12-07T05:13:30;6.30;99.90
2162;DHT22;1087;50.226;8.682;2022-12-07T05:15:55;6.30;99.90
2162;DHT22;1087;50.226;8.682;2022-12-07T05:18:21;6.30;99.90
2162;DHT22;1087;50.226;8.682;2022-12-07T05:20:47;6.30;99.90
2162;DHT22;1087;50.226;8.682;2022-12-07T05:23:12;6.40;99.90
2162;DHT22;1087;50.226;8.682;2022-12-07T05:25:38;6.40;99.90
2162;DHT22;1087;50.226;8.682;2022-12-07T05:28:04;6.30;99.90
2162;DHT22;1087;50.226;8.682;2022-12-07T05:30:30;6.30;99.90
2162;DHT22;1087;50.226;8.682;2022-12-07T05:32:56;6.40;99.90
2162;DHT22;1087;50.226;8.682;2022-12-07T05:35:22;6.40;99.90
2162;DHT22;1087;50.226;8.682;2022-12-07T05:37:47;6.40;99.90
2162;DHT22;1087;50.226;8.682;2022-12-07T05:40:14;6.40;99.90
2162;DHT22;1087;50.226;8.682;2022-12-07T05:42:40;6.40;99.90
2162;DHT22;1087;50.226;8.682;2022-12-07T05:45:07;6.40;99.90
2162;DHT22;1087;50.226;8.682;2022-12-07T05:47:33;6.40;99.90
2162;DHT22;1087;50.226;8.682;2022-12-07T05:49:59;6.40;99.90
2162;DHT22;1087;50.226;8.682;2022-12-07T05:52:24;6.30;99.90
2162;DHT22;1087;50.226;8.682;2022-12-07T05:54:51;6.40;99.90
2162;DHT22;1087;50.226;8.682;2022-12-07T05:57:16;6.40;99.90
2162;DHT22;1087;50.226;8.682;2022-12-07T05:59:42;6.40;99.90
2162;DHT22;1087;50.226;8.682;2022-12-07T06:02:13;6.50;99.90
2162;DHT22;1087;50.226;8.682;2022-12-07T06:04:42;6.50;99.90
2162;DHT22;1087;50.226;8.682;2022-12-07T06:07:09;6.50;99.90
2162;DHT22;1087;50.226;8.682;2022-12-07T06:09:35;6.50;99.90
2162;DHT22;1087;50.226;8.682;2022-12-07T06:12:01;6.50;99.90
2162;DHT22;1087;50.226;8.682;2022-12-07T06:14:45;6.50;99.90
2162;DHT22;1087;50.226;8.682;2022-12-07T06:17:11;6.50;99.90
2162;DHT22;1087;50.226;8.682;2022-12-07T06:19:38;6.40;99.90
2162;DHT22;1087;50.226;8.682;2022-12-07T06:22:04;6.50;99.90
2162;DHT22;1087;50.226;8.682;2022-12-07T06:24:30;6.50;99.90
2162;DHT22;1087;50.226;8.682;2022-12-07T06:26:56;6.40;99.90
2162;DHT22;1087;50.226;8.682;2022-12-07T06:29:21;6.30;99.90
2162;DHT22;1087;50.226;8.682;2022-12-07T06:31:47;6.40;99.90
2162;DHT22;1087;50.226;8.682;2022-12-07T06:34:15;6.40;99.90
2162;DHT22;1087;50.226;8.682;2022-12-07T06:36:41;6.40;99.90
2162;DHT22;1087;50.226;8.682;2022-12-07T06:39:07;6.40;99.90
2162;DHT22;1087;50.226;8.682;2022-12-07T06:41:35;6.40;99.90
2162;DHT22;1087;50.226;8.682;2022-12-07T06:44:01;6.40;99.90
2162;DHT22;1087;50.226;8.682;2022-12-07T06:46:26;6.50;99.90
2162;DHT22;1087;50.226;8.682;2022-12-07T06:48:52;6.50;99.90
2162;DHT22;1087;50.226;8.682;2022-12-07T06:51:17;6.50;99.90
2162;DHT22;1087;50.226;8.682;2022-12-07T06:53:43;6.50;99.90
2162;DHT22;1087;50.226;8.682;2022-12-07T06:56:08;6.50;99.90
2162;DHT22;1087;50.226;8.682;2022-12-07T06:58:34;6.50;99.90
2162;DHT22;1087;50.226;8.682;2022-12-07T07:00:59;6.30;99.90
2162;DHT22;1087;50.226;8.682;2022-12-07T07:03:25;6.20;99.90
2162;DHT22;1087;50.226;8.682;2022-12-07T07:05:50;6.20;99.90
2162;DHT22;1087;50.226;8.682;2022-12-07T07:08:16;6.20;99.90
2162;DHT22;1087;50.226;8.682;2022-12-07T07:10:41;6.30;99.90
2162;DHT22;1087;50.226;8.682;2022-12-07T07:13:08;6.30;99.90
2162;DHT22;1087;50.226;8.682;2022-12-07T07:15:33;6.40;99.90
2162;DHT22;1087;50.226;8.682;2022-12-07T07:17:59;6.40;99.90
2162;DHT22;1087;50.226;8.682;2022-12-07T07:20:26;6.30;99.90
2162;DHT22;1087;50.226;8.682;2022-12-07T07:22:54;6.40;99.90
2162;DHT22;1087;50.226;8.682;2022-12-07T07:25:20;6.40;99.90
2162;DHT22;1087;50.226;8.682;2022-12-07T07:27:45;6.40;99.90
2162;DHT22;1087;50.226;8.682;2022-12-07T07:30:11;6.40;99.90
2162;DHT22;1087;50.226;8.682;2022-12-07T07:32:37;6.40;99.90
2162;DHT22;1087;50.226;8.682;2022-12-07T07:35:03;6.50;99.90
2162;DHT22;1087;50.226;8.682;2022-12-07T07:37:29;6.50;99.90
2162;DHT22;1087;50.226;8.682;2022-12-07T07:39:54;6.60;99.90
2162;DHT22;1087;50.226;8.682;2022-12-07T07:42:20;6.40;99.90
2162;DHT22;1087;50.226;8.682;2022-12-07T07:44:45;6.40;99.90
2162;DHT22;1087;50.226;8.682;2022-12-07T07:47:11;6.50;99.90
2162;DHT22;1087;50.226;8.682;2022-12-07T07:49:36;6.50;99.90
2162;DHT22;1087;50.226;8.682;2022-12-07T07:52:02;6.50;99.90
2162;DHT22;1087;50.226;8.682;2022-12-07T07:54:28;6.60;99.90
2162;DHT22;1087;50.226;8.682;2022-12-07T07:56:54;6.60;99.90
2162;DHT22;1087;50.226;8.682;2022-12-07T07:59:19;6.60;99.90
2162;DHT22;1087;50.226;8.682;2022-12-07T08:01:45;6.60;99.90
2162;DHT22;1087;50.226;8.682;2022-12-07T08:04:10;6.60;99.90
2162;DHT22;1087;50.226;8.682;2022-12-07T08:06:36;6.50;99.90
2162;DHT22;1087;50.226;8.682;2022-12-07T08:09:02;6.50;99.90
2162;DHT22;1087;50.226;8.682;2022-12-07T08:11:27;6.50;99.90
2162;DHT22;1087;50.226;8.682;2022-12-07T08:13:53;6.60;99.90
2162;DHT22;1087;50.226;8.682;2022-12-07T08:16:19;6.60;99.90
2162;DHT22;1087;50.226;8.682;2022-12-07T08:18:44;6.60;99.90
2162;DHT22;1087;50.226;8.682;2022-12-07T08:21:12;6.60;99.90
2162;DHT22;1087;50.226;8.682;2022-12-07T08:23:38;6.50;99.90
2162;DHT22;1087;50.226;8.682;2022-12-07T08:26:06;6.40;99.90
2162;DHT22;1087;50.226;8.682;2022-12-07T08:28:32;6.50;99.90
2162;DHT22;1087;50.226;8.682;2022-12-07T08:31:14;6.60;99.90
2162;DHT22;1087;50.226;8.682;2022-12-07T08:33:41;6.50;99.90
2162;DHT22;1087;50.226;8.682;2022-12-07T08:36:08;6.50;99.90
2162;DHT22;1087;50.226;8.682;2022-12-07T08:38:35;6.50;99.90
2162;DHT22;1087;50.226;8.682;2022-12-07T08:41:01;6.60;99.90
2162;DHT22;1087;50.226;8.682;2022-12-07T08:43:27;6.60;99.90
2162;DHT22;1087;50.226;8.682;2022-12-07T08:48:29;6.60;99.90
2162;DHT22;1087;50.226;8.682;2022-12-07T08:50:56;6.60;99.90
2162;DHT22;1087;50.226;8.682;2022-12-07T08:53:21;6.60;99.90
2162;DHT22;1087;50.226;8.682;2022-12-07T08:55:47;6.60;99.90
2162;DHT22;1087;50.226;8.682;2022-12-07T08:58:13;6.60;99.90
2162;DHT22;1087;50.226;8.682;2022-12-07T09:00:39;6.60;99.90
2162;DHT22;1087;50.226;8.682;2022-12-07T09:03:05;6.60;99.90
2162;DHT22;1087;50.226;8.682;2022-12-07T09:05:32;6.70;99.90
2162;DHT22;1087;50.226;8.682;2022-12-07T09:08:00;6.50;99.90
2162;DHT22;1087;50.226;8.682;2022-12-07T09:10:27;6.40;99.90
2162;DHT22;1087;50.226;8.682;2022-12-07T09:12:52;6.40;99.90
2162;DHT22;1087;50.226;8.682;2022-12-07T09:15:18;6.50;99.90
2162;DHT22;1087;50.226;8.682;2022-12-07T09:17:43;6.60;99.90
2162;DHT22;1087;50.226;8.682;2022-12-07T09:20:09;6.70;99.90
2162;DHT22;1087;50.226;8.682;2022-12-07T09:22:35;6.80;99.90
2162;DHT22;1087;50.226;8.682;2022-12-07T09:25:01;6.80;99.90
2162;DHT22;1087;50.226;8.682;2022-12-07T09:27:28;6.80;99.90
2162;DHT22;1087;50.226;8.682;2022-12-07T09:29:53;6.80;99.90
2162;DHT22;1087;50.226;8.682;2022-12-07T09:32:19;6.90;99.90
2162;DHT22;1087;50.226;8.682;2022-12-07T09:34:44;6.90;99.90
2162;DHT22;1087;50.226;8.682;2022-12-07T09:37:10;6.90;99.90
2162;DHT22;1087;50.226;8.682;2022-12-07T09:39:39;6.80;99.90
2162;DHT22;1087;50.226;8.682;2022-12-07T09:42:06;6.80;99.90
2162;DHT22;1087;50.226;8.682;2022-12-07T09:44:33;6.70;99.90
2162;DHT22;1087;50.226;8.682;2022-12-07T09:47:00;6.70;99.90
2162;DHT22;1087;50.226;8.682;2022-12-07T09:49:29;6.80;99.90
2162;DHT22;1087;50.226;8.682;2022-12-07T09:54:44;6.80;99.90
2162;DHT22;1087;50.226;8.682;2022-12-07T09:57:11;6.90;99.90
2162;DHT22;1087;50.226;8.682;2022-12-07T09:59:38;6.90;99.90
2162;DHT22;1087;50.226;8.682;2022-12-07T10:02:34;7.10;99.90
2162;DHT22;1087;50.226;8.682;2022-12-07T10:05:00;7.20;99.90
2162;DHT22;1087;50.226;8.682;2022-12-07T10:07:25;7.10;99.90
2162;DHT22;1087;50.226;8.682;2022-12-07T10:09:51;7.10;99.90
2162;DHT22;1087;50.226;8.682;2022-12-07T10:12:16;7.00;99.90
2162;DHT22;1087;50.226;8.682;2022-12-07T10:14:57;7.00;99.90
2162;DHT22;1087;50.226;8.682;2022-12-07T10:20:18;7.00;99.90
2162;DHT22;1087;50.226;8.682;2022-12-07T10:23:01;7.00;99.90
2162;DHT22;1087;50.226;8.682;2022-12-07T10:25:36;6.90;99.90
2162;DHT22;1087;50.226;8.682;2022-12-07T10:28:17;7.00;99.90
2162;DHT22;1087;50.226;8.682;2022-12-07T10:30:54;7.00;99.90
2162;DHT22;1087;50.226;8.682;2022-12-07T10:33:34;7.10;99.90
2162;DHT22;1087;50.226;8.682;2022-12-07T10:36:15;7.00;99.90
2162;DHT22;1087;50.226;8.682;2022-12-07T10:38:46;7.10;99.90
2162;DHT22;1087;50.226;8.682;2022-12-07T10:41:12;7.00;99.90
2162;DHT22;1087;50.226;8.682;2022-12-07T10:43:48;7.10;99.90
2162;DHT22;1087;50.226;8.682;2022-12-07T10:51:52;7.00;99.90
2162;DHT22;1087;50.226;8.682;2022-12-07T10:54:38;7.10;99.90
2162;DHT22;1087;50.226;8.682;2022-12-07T10:57:22;7.10;99.90
2162;DHT22;1087;50.226;8.682;2022-12-07T11:00:01;7.20;99.90
2162;DHT22;1087;50.226;8.682;2022-12-07T11:11:33;7.20;99.90
2162;DHT22;1087;50.226;8.682;2022-12-07T11:14:25;7.00;99.90
2162;DHT22;1087;50.226;8.682;2022-12-07T11:17:13;7.00;99.90
2162;DHT22;1087;50.226;8.682;2022-12-07T11:22:41;7.10;99.90
2162;DHT22;1087;50.226;8.682;2022-12-07T11:25:35;7.10;99.90
2162;DHT22;1087;50.226;8.682;2022-12-07T11:31:22;7.20;99.90
2162;DHT22;1087;50.226;8.682;2022-12-07T11:33:53;7.30;99.90
2162;DHT22;1087;50.226;8.682;2022-12-07T11:36:36;7.30;99.90
2162;DHT22;1087;50.226;8.682;2022-12-07T11:39:12;7.40;99.90
2162;DHT22;1087;50.226;8.682;2022-12-07T11:41:41;7.40;99.90
2162;DHT22;1087;50.226;8.682;2022-12-07T11:44:39;7.30;99.90
2162;DHT22;1087;50.226;8.682;2022-12-07T11:47:43;7.40;99.90
2162;DHT22;1087;50.226;8.682;2022-12-07T11:53:09;7.40;99.90
2162;DHT22;1087;50.226;8.682;2022-12-07T11:55:43;7.40;99.90
2162;DHT22;1087;50.226;8.682;2022-12-07T12:03:38;7.50;99.90
2162;DHT22;1087;50.226;8.682;2022-12-07T12:06:06;7.50;99.90
2162;DHT22;1087;50.226;8.682;2022-12-07T12:08:45;7.50;99.90
2162;DHT22;1087;50.226;8.682;2022-12-07T12:11:38;7.60;99.90
2162;DHT22;1087;50.226;8.682;2022-12-07T12:17:44;7.60;99.90
2162;DHT22;1087;50.226;8.682;2022-12-07T12:20:31;7.40;99.90
2162;DHT22;1087;50.226;8.682;2022-12-07T12:23:06;7.50;99.90
2162;DHT22;1087;50.226;8.682;2022-12-07T12:28:23;7.50;99.90
2162;DHT22;1087;50.226;8.682;2022-12-07T12:31:11;7.50;99.90
2162;DHT22;1087;50.226;8.682;2022-12-07T12:33:38;7.40;99.90
2162;DHT22;1087;50.226;8.682;2022-12-07T12:36:24;7.50;99.90
2162;DHT22;1087;50.226;8.682;2022-12-07T12:44:00;7.40;99.90
2162;DHT22;1087;50.226;8.682;2022-12-07T12:51:42;7.50;99.90
2162;DHT22;1087;50.226;8.682;2022-12-07T12:56:55;7.40;99.90
2162;DHT22;1087;50.226;8.682;2022-12-07T12:59:30;7.40;99.90
2162;DHT22;1087;50.226;8.682;2022-12-07T13:10:38;7.60;99.90
2162;DHT22;1087;50.226;8.682;2022-12-07T13:15:53;7.60;99.90
2162;DHT22;1087;50.226;8.682;2022-12-07T13:18:36;7.60;99.90
2162;DHT22;1087;50.226;8.682;2022-12-07T13:23:39;7.50;99.90
2162;DHT22;1087;50.226;8.682;2022-12-07T13:26:36;7.60;99.90
2162;DHT22;1087;50.226;8.682;2022-12-07T13:29:17;7.60;99.90
2162;DHT22;1087;50.226;8.682;2022-12-07T13:31:56;7.60;99.90
2162;DHT22;1087;50.226;8.682;2022-12-07T13:34:35;7.60;99.90
2162;DHT22;1087;50.226;8.682;2022-12-07T13:39:28;7.60;99.90
2162;DHT22;1087;50.226;8.682;2022-12-07T13:42:11;7.60;99.90
2162;DHT22;1087;50.226;8.682;2022-12-07T13:44:40;7.70;99.90
2162;DHT22;1087;50.226;8.682;2022-12-07T13:47:13;7.60;99.90
2162;DHT22;1087;50.226;8.682;2022-12-07T13:49:53;7.50;99.90
2162;DHT22;1087;50.226;8.682;2022-12-07T13:52:27;7.40;99.90
2162;DHT22;1087;50.226;8.682;2022-12-07T13:55:01;7.40;99.90
2162;DHT22;1087;50.226;8.682;2022-12-07T13:57:29;7.30;99.90
2162;DHT22;1087;50.226;8.682;2022-12-07T13:59:56;7.10;99.90
2162;DHT22;1087;50.226;8.682;2022-12-07T14:02:27;6.90;99.90
2162;DHT22;1087;50.226;8.682;2022-12-07T14:05:13;6.90;99.90
2162;DHT22;1087;50.226;8.682;2022-12-07T14:07:54;7.00;99.90
2162;DHT22;1087;50.226;8.682;2022-12-07T14:11:17;7.10;99.90
2162;DHT22;1087;50.226;8.682;2022-12-07T14:13:37;7.00;99.90
2162;DHT22;1087;50.226;8.682;2022-12-07T14:16:22;7.10;99.90
2162;DHT22;1087;50.226;8.682;2022-12-07T14:18:49;7.20;99.90
2162;DHT22;1087;50.226;8.682;2022-12-07T14:21:17;7.20;99.90
2162;DHT22;1087;50.226;8.682;2022-12-07T14:23:44;7.30;99.90
2162;DHT22;1087;50.226;8.682;2022-12-07T14:26:15;7.30;99.90
2162;DHT22;1087;50.226;8.682;2022-12-07T14:28:42;7.40;99.90
2162;DHT22;1087;50.226;8.682;2022-12-07T14:31:12;7.40;99.90
2162;DHT22;1087;50.226;8.682;2022-12-07T14:33:39;7.40;99.90
2162;DHT22;1087;50.226;8.682;2022-12-07T14:36:05;7.50;99.90
2162;DHT22;1087;50.226;8.682;2022-12-07T14:38:30;7.50;99.90
2162;DHT22;1087;50.226;8.682;2022-12-07T14:40:56;7.50;99.90
2162;DHT22;1087;50.226;8.682;2022-12-07T14:43:42;7.50;99.90
2162;DHT22;1087;50.226;8.682;2022-12-07T14:46:09;7.50;99.90
2162;DHT22;1087;50.226;8.682;2022-12-07T14:48:34;7.30;99.90
2162;DHT22;1087;50.226;8.682;2022-12-07T14:51:00;7.30;99.90
2162;DHT22;1087;50.226;8.682;2022-12-07T14:53:30;7.10;99.90
2162;DHT22;1087;50.226;8.682;2022-12-07T14:55:57;7.10;99.90
2162;DHT22;1087;50.226;8.682;2022-12-07T14:58:22;6.90;99.90
2162;DHT22;1087;50.226;8.682;2022-12-07T15:00:48;7.00;99.90
2162;DHT22;1087;50.226;8.682;2022-12-07T15:03:13;7.10;99.90
2162;DHT22;1087;50.226;8.682;2022-12-07T15:05:40;7.10;99.90
2162;DHT22;1087;50.226;8.682;2022-12-07T15:08:06;7.10;99.90
2162;DHT22;1087;50.226;8.682;2022-12-07T15:10:33;7.10;99.90
2162;DHT22;1087;50.226;8.682;2022-12-07T15:13:00;7.10;99.90
2162;DHT22;1087;50.226;8.682;2022-12-07T15:15:45;7.10;99.90
2162;DHT22;1087;50.226;8.682;2022-12-07T15:18:11;7.10;99.90
2162;DHT22;1087;50.226;8.682;2022-12-07T15:20:36;7.20;99.90
2162;DHT22;1087;50.226;8.682;2022-12-07T15:23:02;7.20;99.90
2162;DHT22;1087;50.226;8.682;2022-12-07T15:25:28;7.10;99.90
2162;DHT22;1087;50.226;8.682;2022-12-07T15:27:53;7.00;99.90
2162;DHT22;1087;50.226;8.682;2022-12-07T15:30:19;7.00;99.90
2162;DHT22;1087;50.226;8.682;2022-12-07T15:32:49;7.00;99.90
2162;DHT22;1087;50.226;8.682;2022-12-07T15:35:14;7.10;99.90
2162;DHT22;1087;50.226;8.682;2022-12-07T15:37:40;7.00;99.90
2162;DHT22;1087;50.226;8.682;2022-12-07T15:40:06;7.00;99.90
2162;DHT22;1087;50.226;8.682;2022-12-07T15:42:32;7.10;99.90
2162;DHT22;1087;50.226;8.682;2022-12-07T15:44:57;7.20;99.90
2162;DHT22;1087;50.226;8.682;2022-12-07T15:47:30;7.20;99.90
2162;DHT22;1087;50.226;8.682;2022-12-07T15:49:56;7.20;99.90
2162;DHT22;1087;50.226;8.682;2022-12-07T15:52:21;7.20;99.90
2162;DHT22;1087;50.226;8.682;2022-12-07T15:54:47;7.20;99.90
2162;DHT22;1087;50.226;8.682;2022-12-07T15:57:13;7.20;99.90
2162;DHT22;1087;50.226;8.682;2022-12-07T15:59:39;7.00;99.90
2162;DHT22;1087;50.226;8.682;2022-12-07T16:02:04;7.00;99.90
2162;DHT22;1087;50.226;8.682;2022-12-07T16:04:30;7.00;99.90
2162;DHT22;1087;50.226;8.682;2022-12-07T16:06:56;6.70;99.90
2162;DHT22;1087;50.226;8.682;2022-12-07T16:09:22;6.80;99.90
2162;DHT22;1087;50.226;8.682;2022-12-07T16:11:47;6.70;99.90
2162;DHT22;1087;50.226;8.682;2022-12-07T16:14:15;6.80;99.90
2162;DHT22;1087;50.226;8.682;2022-12-07T16:16:40;6.80;99.90
2162;DHT22;1087;50.226;8.682;2022-12-07T16:19:07;6.80;99.90
2162;DHT22;1087;50.226;8.682;2022-12-07T16:21:34;6.90;99.90
2162;DHT22;1087;50.226;8.682;2022-12-07T16:23:59;6.90;99.90
2162;DHT22;1087;50.226;8.682;2022-12-07T16:26:25;6.90;99.90
2162;DHT22;1087;50.226;8.682;2022-12-07T16:28:52;7.00;99.90
2162;DHT22;1087;50.226;8.682;2022-12-07T16:31:21;7.00;99.90
2162;DHT22;1087;50.226;8.682;2022-12-07T16:33:47;6.80;99.90
2162;DHT22;1087;50.226;8.682;2022-12-07T16:36:15;6.80;99.90
2162;DHT22;1087;50.226;8.682;2022-12-07T16:38:43;6.80;99.90
2162;DHT22;1087;50.226;8.682;2022-12-07T16:41:10;6.90;99.90
2162;DHT22;1087;50.226;8.682;2022-12-07T16:43:36;6.90;99.90
2162;DHT22;1087;50.226;8.682;2022-12-07T16:46:02;7.00;99.90
2162;DHT22;1087;50.226;8.682;2022-12-07T16:48:28;7.00;99.90
2162;DHT22;1087;50.226;8.682;2022-12-07T16:50:54;7.10;99.90
2162;DHT22;1087;50.226;8.682;2022-12-07T16:53:21;7.10;99.90
2162;DHT22;1087;50.226;8.682;2022-12-07T16:55:47;7.10;99.90
2162;DHT22;1087;50.226;8.682;2022-12-07T16:58:14;7.10;99.90
2162;DHT22;1087;50.226;8.682;2022-12-07T17:00:40;7.20;99.90
2162;DHT22;1087;50.226;8.682;2022-12-07T17:03:06;7.10;99.90
2162;DHT22;1087;50.226;8.682;2022-12-07T17:05:32;7.10;99.90
2162;DHT22;1087;50.226;8.682;2022-12-07T17:07:58;7.10;99.90
2162;DHT22;1087;50.226;8.682;2022-12-07T17:10:25;7.10;99.90
2162;DHT22;1087;50.226;8.682;2022-12-07T17:12:51;7.10;99.90
2162;DHT22;1087;50.226;8.682;2022-12-07T17:15:17;7.00;99.90
2162;DHT22;1087;50.226;8.682;2022-12-07T17:17:52;7.00;99.90
2162;DHT22;1087;50.226;8.682;2022-12-07T17:20:19;7.00;99.90
2162;DHT22;1087;50.226;8.682;2022-12-07T17:22:45;7.00;99.90
2162;DHT22;1087;50.226;8.682;2022-12-07T17:25:11;7.00;99.90
2162;DHT22;1087;50.226;8.682;2022-12-07T17:27:37;6.90;99.90
2162;DHT22;1087;50.226;8.682;2022-12-07T17:30:06;6.90;99.90
2162;DHT22;1087;50.226;8.682;2022-12-07T17:32:32;6.60;99.90
2162;DHT22;1087;50.226;8.682;2022-12-07T17:34:58;6.70;99.90
2162;DHT22;1087;50.226;8.682;2022-12-07T17:37:23;6.70;99.90
2162;DHT22;1087;50.226;8.682;2022-12-07T17:39:49;6.70;99.90
2162;DHT22;1087;50.226;8.682;2022-12-07T17:42:15;6.70;99.90
2162;DHT22;1087;50.226;8.682;2022-12-07T17:44:59;6.70;99.90
2162;DHT22;1087;50.226;8.682;2022-12-07T17:47:25;6.70;99.90
2162;DHT22;1087;50.226;8.682;2022-12-07T17:49:50;6.70;99.90
2162;DHT22;1087;50.226;8.682;2022-12-07T17:52:16;6.70;99.90
2162;DHT22;1087;50.226;8.682;2022-12-07T17:55:00;6.80;99.90
2162;DHT22;1087;50.226;8.682;2022-12-07T17:57:25;6.60;99.90
2162;DHT22;1087;50.226;8.682;2022-12-07T17:59:51;6.70;99.90
2162;DHT22;1087;50.226;8.682;2022-12-07T18:02:17;6.70;99.90
2162;DHT22;1087;50.226;8.682;2022-12-07T18:04:43;6.80;99.90
2162;DHT22;1087;50.226;8.682;2022-12-07T18:07:10;6.80;99.90